sensor_id;sensor_type;location;lat;lon;timestamp;pressure;altitude;pressure_sealevel;temperature
45850;BMP180;10739;52.198;20.908;2022-11-14T00:00:43;101642.00;;;12.30
45850;BMP180;10739;52.198;20.908;2022-11-14T00:03:11;101638.00;;;12.30
45850;BMP180;10739;52.198;20.908;2022-11-14T00:05:40;101645.00;;;12.40
45850;BMP180;10739;52.198;20.908;2022-11-14T00:08:18;101637.00;;;12.50
45850;BMP180;10739;52.198;20.908;2022-11-14T00:10:46;101628.00;;;12.70
45850;BMP180;10739;52.198;20.908;2022-11-14T00:13:13;101635.00;;;12.50
45850;BMP180;10739;52.198;20.908;2022-11-14T00:15:39;101641.00;;;12.60
45850;BMP180;10739;52.198;20.908;2022-11-14T00:18:06;101636.00;;;12.40
45850;BMP180;10739;52.198;20.908;2022-11-14T00:20:32;101636.00;;;12.40
45850;BMP180;10739;52.198;20.908;2022-11-14T00:22:58;101635.00;;;12.20
45850;BMP180;10739;52.198;20.908;2022-11-14T00:25:24;101638.00;;;12.50
45850;BMP180;10739;52.198;20.908;2022-11-14T00:27:50;101641.00;;;12.50
45850;BMP180;10739;52.198;20.908;2022-11-14T00:30:16;101621.00;;;12.30
45850;BMP180;10739;52.198;20.908;2022-11-14T00:32:42;101640.00;;;12.50
45850;BMP180;10739;52.198;20.908;2022-11-14T00:35:08;101631.00;;;12.70
45850;BMP180;10739;52.198;20.908;2022-11-14T00:37:35;101635.00;;;12.40
45850;BMP180;10739;52.198;20.908;2022-11-14T00:40:01;101639.00;;;12.40
45850;BMP180;10739;52.198;20.908;2022-11-14T00:42:27;101629.00;;;12.20
45850;BMP180;10739;52.198;20.908;2022-11-14T00:44:53;101627.00;;;12.30
45850;BMP180;10739;52.198;20.908;2022-11-14T00:47:19;101623.00;;;12.20
45850;BMP180;10739;52.198;20.908;2022-11-14T00:49:45;101622.00;;;12.50
45850;BMP180;10739;52.198;20.908;2022-11-14T00:52:11;101620.00;;;12.50
45850;BMP180;10739;52.198;20.908;2022-11-14T00:54:37;101618.00;;;12.60
45850;BMP180;10739;52.198;20.908;2022-11-14T00:57:03;101621.00;;;12.60
45850;BMP180;10739;52.198;20.908;2022-11-14T00:59:29;101620.00;;;12.50
45850;BMP180;10739;52.198;20.908;2022-11-14T01:01:55;101609.00;;;12.50
45850;BMP180;10739;52.198;20.908;2022-11-14T01:04:21;101621.00;;;12.50
45850;BMP180;10739;52.198;20.908;2022-11-14T01:06:47;101612.00;;;12.40
45850;BMP180;10739;52.198;20.908;2022-11-14T01:09:13;101600.00;;;12.50
45850;BMP180;10739;52.198;20.908;2022-11-14T01:11:39;101600.00;;;12.40
45850;BMP180;10739;52.198;20.908;2022-11-14T01:14:06;101602.00;;;12.40
45850;BMP180;10739;52.198;20.908;2022-11-14T01:16:33;101593.00;;;12.40
45850;BMP180;10739;52.198;20.908;2022-11-14T01:19:01;101591.00;;;12.20
45850;BMP180;10739;52.198;20.908;2022-11-14T01:21:27;101597.00;;;12.40
45850;BMP180;10739;52.198;20.908;2022-11-14T01:23:54;101582.00;;;12.50
45850;BMP180;10739;52.198;20.908;2022-11-14T01:26:20;101598.00;;;12.40
45850;BMP180;10739;52.198;20.908;2022-11-14T01:28:46;101590.00;;;12.40
45850;BMP180;10739;52.198;20.908;2022-11-14T01:31:20;101579.00;;;12.70
45850;BMP180;10739;52.198;20.908;2022-11-14T01:33:51;101585.00;;;12.30
45850;BMP180;10739;52.198;20.908;2022-11-14T01:36:18;101584.00;;;12.40
45850;BMP180;10739;52.198;20.908;2022-11-14T01:38:45;101581.00;;;12.40
45850;BMP180;10739;52.198;20.908;2022-11-14T01:41:15;101581.00;;;12.20
45850;BMP180;10739;52.198;20.908;2022-11-14T01:43:42;101577.00;;;12.30
45850;BMP180;10739;52.198;20.908;2022-11-14T01:46:27;101574.00;;;12.20
45850;BMP180;10739;52.198;20.908;2022-11-14T01:49:00;101571.00;;;12.40
45850;BMP180;10739;52.198;20.908;2022-11-14T01:54:34;101570.00;;;12.10
45850;BMP180;10739;52.198;20.908;2022-11-14T01:57:04;101553.00;;;12.00
45850;BMP180;10739;52.198;20.908;2022-11-14T01:59:37;101562.00;;;12.30
45850;BMP180;10739;52.198;20.908;2022-11-14T02:02:14;101561.00;;;12.20
45850;BMP180;10739;52.198;20.908;2022-11-14T02:04:47;101559.00;;;12.00
45850;BMP180;10739;52.198;20.908;2022-11-14T02:07:14;101550.00;;;11.80
45850;BMP180;10739;52.198;20.908;2022-11-14T02:09:45;101556.00;;;11.60
45850;BMP180;10739;52.198;20.908;2022-11-14T02:12:16;101550.00;;;11.90
45850;BMP180;10739;52.198;20.908;2022-11-14T02:14:45;101549.00;;;11.60
45850;BMP180;10739;52.198;20.908;2022-11-14T02:17:14;101557.00;;;11.50
45850;BMP180;10739;52.198;20.908;2022-11-14T02:19:51;101549.00;;;11.40
45850;BMP180;10739;52.198;20.908;2022-11-14T02:22:18;101554.00;;;11.50
45850;BMP180;10739;52.198;20.908;2022-11-14T02:24:45;101552.00;;;11.60
45850;BMP180;10739;52.198;20.908;2022-11-14T02:27:14;101552.00;;;11.70
45850;BMP180;10739;52.198;20.908;2022-11-14T02:29:41;101542.00;;;11.20
45850;BMP180;10739;52.198;20.908;2022-11-14T02:32:07;101547.00;;;11.70
45850;BMP180;10739;52.198;20.908;2022-11-14T02:34:33;101546.00;;;11.30
45850;BMP180;10739;52.198;20.908;2022-11-14T02:36:59;101528.00;;;11.40
45850;BMP180;10739;52.198;20.908;2022-11-14T02:39:26;101535.00;;;11.40
45850;BMP180;10739;52.198;20.908;2022-11-14T02:41:52;101536.00;;;11.20
45850;BMP180;10739;52.198;20.908;2022-11-14T02:44:18;101541.00;;;11.20
45850;BMP180;10739;52.198;20.908;2022-11-14T02:46:44;101535.00;;;11.20
45850;BMP180;10739;52.198;20.908;2022-11-14T02:49:10;101535.00;;;11.50
45850;BMP180;10739;52.198;20.908;2022-11-14T02:51:36;101536.00;;;11.40
45850;BMP180;10739;52.198;20.908;2022-11-14T02:54:03;101532.00;;;11.60
45850;BMP180;10739;52.198;20.908;2022-11-14T02:56:29;101526.00;;;11.20
45850;BMP180;10739;52.198;20.908;2022-11-14T02:58:55;101518.00;;;11.30
45850;BMP180;10739;52.198;20.908;2022-11-14T03:01:21;101519.00;;;11.20
45850;BMP180;10739;52.198;20.908;2022-11-14T03:03:47;101519.00;;;11.20
45850;BMP180;10739;52.198;20.908;2022-11-14T03:06:13;101514.00;;;11.20
45850;BMP180;10739;52.198;20.908;2022-11-14T03:08:39;101515.00;;;10.80
45850;BMP180;10739;52.198;20.908;2022-11-14T03:11:08;101519.00;;;10.80
45850;BMP180;10739;52.198;20.908;2022-11-14T03:13:35;101513.00;;;11.50
45850;BMP180;10739;52.198;20.908;2022-11-14T03:16:07;101511.00;;;11.20
45850;BMP180;10739;52.198;20.908;2022-11-14T03:18:34;101513.00;;;11.00
45850;BMP180;10739;52.198;20.908;2022-11-14T03:21:10;101515.00;;;11.20
45850;BMP180;10739;52.198;20.908;2022-11-14T03:23:36;101504.00;;;11.30
45850;BMP180;10739;52.198;20.908;2022-11-14T03:26:06;101502.00;;;11.20
45850;BMP180;10739;52.198;20.908;2022-11-14T03:28:33;101503.00;;;11.30
45850;BMP180;10739;52.198;20.908;2022-11-14T03:31:00;101504.00;;;11.30
45850;BMP180;10739;52.198;20.908;2022-11-14T03:33:26;101500.00;;;11.50
45850;BMP180;10739;52.198;20.908;2022-11-14T03:35:53;101501.00;;;11.30
45850;BMP180;10739;52.198;20.908;2022-11-14T03:38:20;101506.00;;;11.20
45850;BMP180;10739;52.198;20.908;2022-11-14T03:40:52;101497.00;;;11.40
45850;BMP180;10739;52.198;20.908;2022-11-14T03:43:20;101498.00;;;11.30
45850;BMP180;10739;52.198;20.908;2022-11-14T03:45:46;101492.00;;;11.20
45850;BMP180;10739;52.198;20.908;2022-11-14T03:48:13;101493.00;;;11.20
45850;BMP180;10739;52.198;20.908;2022-11-14T03:50:41;101494.00;;;11.60
45850;BMP180;10739;52.198;20.908;2022-11-14T03:53:07;101500.00;;;11.40
45850;BMP180;10739;52.198;20.908;2022-11-14T03:55:34;101491.00;;;11.40
45850;BMP180;10739;52.198;20.908;2022-11-14T03:58:00;101489.00;;;11.60
45850;BMP180;10739;52.198;20.908;2022-11-14T04:00:26;101494.00;;;11.30
45850;BMP180;10739;52.198;20.908;2022-11-14T04:02:56;101488.00;;;11.10
45850;BMP180;10739;52.198;20.908;2022-11-14T04:05:23;101490.00;;;11.10
45850;BMP180;10739;52.198;20.908;2022-11-14T04:07:49;101479.00;;;11.20
45850;BMP180;10739;52.198;20.908;2022-11-14T04:10:16;101485.00;;;11.30
45850;BMP180;10739;52.198;20.908;2022-11-14T04:12:53;101479.00;;;11.30
45850;BMP180;10739;52.198;20.908;2022-11-14T04:15:20;101475.00;;;11.60
45850;BMP180;10739;52.198;20.908;2022-11-14T04:17:46;101474.00;;;11.60
45850;BMP180;10739;52.198;20.908;2022-11-14T04:20:13;101463.00;;;11.70
45850;BMP180;10739;52.198;20.908;2022-11-14T04:22:40;101477.00;;;11.80
45850;BMP180;10739;52.198;20.908;2022-11-14T04:25:08;101466.00;;;11.70
45850;BMP180;10739;52.198;20.908;2022-11-14T04:27:34;101475.00;;;11.80
45850;BMP180;10739;52.198;20.908;2022-11-14T04:30:00;101470.00;;;11.90
45850;BMP180;10739;52.198;20.908;2022-11-14T04:32:27;101462.00;;;11.80
45850;BMP180;10739;52.198;20.908;2022-11-14T04:34:53;101468.00;;;11.90
45850;BMP180;10739;52.198;20.908;2022-11-14T04:37:19;101469.00;;;11.90
45850;BMP180;10739;52.198;20.908;2022-11-14T04:39:45;101461.00;;;12.00
45850;BMP180;10739;52.198;20.908;2022-11-14T04:42:11;101477.00;;;12.00
45850;BMP180;10739;52.198;20.908;2022-11-14T04:44:37;101468.00;;;11.80
45850;BMP180;10739;52.198;20.908;2022-11-14T04:47:03;101456.00;;;11.90
45850;BMP180;10739;52.198;20.908;2022-11-14T04:49:29;101452.00;;;11.80
45850;BMP180;10739;52.198;20.908;2022-11-14T04:51:55;101460.00;;;11.80
45850;BMP180;10739;52.198;20.908;2022-11-14T04:54:21;101453.00;;;11.70
45850;BMP180;10739;52.198;20.908;2022-11-14T04:56:47;101453.00;;;11.90
45850;BMP180;10739;52.198;20.908;2022-11-14T04:59:14;101450.00;;;11.60
45850;BMP180;10739;52.198;20.908;2022-11-14T05:01:40;101457.00;;;11.40
45850;BMP180;10739;52.198;20.908;2022-11-14T05:04:06;101455.00;;;11.30
45850;BMP180;10739;52.198;20.908;2022-11-14T05:06:32;101448.00;;;11.40
45850;BMP180;10739;52.198;20.908;2022-11-14T05:08:58;101443.00;;;11.60
45850;BMP180;10739;52.198;20.908;2022-11-14T05:11:24;101453.00;;;11.50
45850;BMP180;10739;52.198;20.908;2022-11-14T05:13:50;101459.00;;;11.30
45850;BMP180;10739;52.198;20.908;2022-11-14T05:16:16;101445.00;;;11.30
45850;BMP180;10739;52.198;20.908;2022-11-14T05:18:42;101456.00;;;11.70
45850;BMP180;10739;52.198;20.908;2022-11-14T05:21:13;101448.00;;;11.30
45850;BMP180;10739;52.198;20.908;2022-11-14T05:23:40;101455.00;;;11.30
45850;BMP180;10739;52.198;20.908;2022-11-14T05:26:14;101445.00;;;11.60
45850;BMP180;10739;52.198;20.908;2022-11-14T05:28:40;101455.00;;;11.80
45850;BMP180;10739;52.198;20.908;2022-11-14T05:31:12;101445.00;;;12.00
45850;BMP180;10739;52.198;20.908;2022-11-14T05:33:39;101438.00;;;12.20
45850;BMP180;10739;52.198;20.908;2022-11-14T05:36:09;101439.00;;;11.70
45850;BMP180;10739;52.198;20.908;2022-11-14T05:38:36;101443.00;;;11.80
45850;BMP180;10739;52.198;20.908;2022-11-14T05:41:08;101446.00;;;11.80
45850;BMP180;10739;52.198;20.908;2022-11-14T05:43:35;101437.00;;;11.70
45850;BMP180;10739;52.198;20.908;2022-11-14T05:46:04;101440.00;;;11.70
45850;BMP180;10739;52.198;20.908;2022-11-14T05:48:31;101441.00;;;11.50
45850;BMP180;10739;52.198;20.908;2022-11-14T05:50:59;101442.00;;;11.50
45850;BMP180;10739;52.198;20.908;2022-11-14T05:53:28;101433.00;;;11.60
45850;BMP180;10739;52.198;20.908;2022-11-14T05:55:59;101437.00;;;11.90
45850;BMP180;10739;52.198;20.908;2022-11-14T05:58:25;101442.00;;;11.60
45850;BMP180;10739;52.198;20.908;2022-11-14T06:00:51;101447.00;;;11.80
45850;BMP180;10739;52.198;20.908;2022-11-14T06:03:17;101448.00;;;11.50
45850;BMP180;10739;52.198;20.908;2022-11-14T06:05:43;101445.00;;;11.90
45850;BMP180;10739;52.198;20.908;2022-11-14T06:08:09;101447.00;;;12.00
45850;BMP180;10739;52.198;20.908;2022-11-14T06:10:35;101447.00;;;12.10
45850;BMP180;10739;52.198;20.908;2022-11-14T06:13:01;101452.00;;;12.00
45850;BMP180;10739;52.198;20.908;2022-11-14T06:15:28;101455.00;;;11.60
45850;BMP180;10739;52.198;20.908;2022-11-14T06:17:54;101456.00;;;11.70
45850;BMP180;10739;52.198;20.908;2022-11-14T06:20:20;101458.00;;;11.90
45850;BMP180;10739;52.198;20.908;2022-11-14T06:22:46;101463.00;;;11.80
45850;BMP180;10739;52.198;20.908;2022-11-14T06:25:12;101457.00;;;11.80
45850;BMP180;10739;52.198;20.908;2022-11-14T06:27:38;101458.00;;;11.50
45850;BMP180;10739;52.198;20.908;2022-11-14T06:30:04;101452.00;;;11.90
45850;BMP180;10739;52.198;20.908;2022-11-14T06:32:31;101461.00;;;11.90
45850;BMP180;10739;52.198;20.908;2022-11-14T06:34:57;101451.00;;;11.70
45850;BMP180;10739;52.198;20.908;2022-11-14T06:37:23;101457.00;;;11.60
45850;BMP180;10739;52.198;20.908;2022-11-14T06:39:48;101457.00;;;11.70
45850;BMP180;10739;52.198;20.908;2022-11-14T06:42:15;101460.00;;;11.70
45850;BMP180;10739;52.198;20.908;2022-11-14T06:44:42;101455.00;;;11.70
45850;BMP180;10739;52.198;20.908;2022-11-14T06:47:08;101463.00;;;11.60
45850;BMP180;10739;52.198;20.908;2022-11-14T06:49:34;101474.00;;;11.30
45850;BMP180;10739;52.198;20.908;2022-11-14T06:52:00;101477.00;;;11.30
45850;BMP180;10739;52.198;20.908;2022-11-14T06:54:26;101480.00;;;11.30
45850;BMP180;10739;52.198;20.908;2022-11-14T06:56:52;101473.00;;;11.20
45850;BMP180;10739;52.198;20.908;2022-11-14T06:59:18;101467.00;;;11.40
45850;BMP180;10739;52.198;20.908;2022-11-14T07:01:44;101472.00;;;11.10
45850;BMP180;10739;52.198;20.908;2022-11-14T07:04:10;101474.00;;;11.10
45850;BMP180;10739;52.198;20.908;2022-11-14T07:06:36;101476.00;;;11.10
45850;BMP180;10739;52.198;20.908;2022-11-14T07:09:03;101474.00;;;11.10
45850;BMP180;10739;52.198;20.908;2022-11-14T07:11:29;101479.00;;;11.10
45850;BMP180;10739;52.198;20.908;2022-11-14T07:14:01;101475.00;;;11.20
45850;BMP180;10739;52.198;20.908;2022-11-14T07:16:31;101474.00;;;11.40
45850;BMP180;10739;52.198;20.908;2022-11-14T07:18:58;101465.00;;;11.10
45850;BMP180;10739;52.198;20.908;2022-11-14T07:21:27;101460.00;;;11.00
45850;BMP180;10739;52.198;20.908;2022-11-14T07:23:53;101456.00;;;11.10
45850;BMP180;10739;52.198;20.908;2022-11-14T07:26:20;101461.00;;;10.80
45850;BMP180;10739;52.198;20.908;2022-11-14T07:28:46;101458.00;;;11.10
45850;BMP180;10739;52.198;20.908;2022-11-14T07:31:15;101455.00;;;11.20
45850;BMP180;10739;52.198;20.908;2022-11-14T07:33:44;101453.00;;;11.10
45850;BMP180;10739;52.198;20.908;2022-11-14T07:36:12;101450.00;;;11.10
45850;BMP180;10739;52.198;20.908;2022-11-14T07:38:39;101448.00;;;11.30
45850;BMP180;10739;52.198;20.908;2022-11-14T07:41:10;101449.00;;;11.50
45850;BMP180;10739;52.198;20.908;2022-11-14T07:43:37;101449.00;;;11.20
45850;BMP180;10739;52.198;20.908;2022-11-14T07:46:11;101455.00;;;10.80
45850;BMP180;10739;52.198;20.908;2022-11-14T07:48:38;101454.00;;;11.00
45850;BMP180;10739;52.198;20.908;2022-11-14T07:51:09;101445.00;;;11.20
45850;BMP180;10739;52.198;20.908;2022-11-14T07:53:35;101447.00;;;11.10
45850;BMP180;10739;52.198;20.908;2022-11-14T07:56:05;101446.00;;;11.40
45850;BMP180;10739;52.198;20.908;2022-11-14T07:58:35;101441.00;;;11.50
45850;BMP180;10739;52.198;20.908;2022-11-14T08:01:03;101445.00;;;11.40
45850;BMP180;10739;52.198;20.908;2022-11-14T08:03:30;101441.00;;;11.30
45850;BMP180;10739;52.198;20.908;2022-11-14T08:06:06;101450.00;;;11.20
45850;BMP180;10739;52.198;20.908;2022-11-14T08:08:33;101451.00;;;11.30
45850;BMP180;10739;52.198;20.908;2022-11-14T08:11:00;101442.00;;;11.10
45850;BMP180;10739;52.198;20.908;2022-11-14T08:13:27;101454.00;;;11.20
45850;BMP180;10739;52.198;20.908;2022-11-14T08:15:54;101440.00;;;11.30
45850;BMP180;10739;52.198;20.908;2022-11-14T08:18:21;101439.00;;;10.90
45850;BMP180;10739;52.198;20.908;2022-11-14T08:20:48;101434.00;;;11.30
45850;BMP180;10739;52.198;20.908;2022-11-14T08:23:14;101433.00;;;11.10
45850;BMP180;10739;52.198;20.908;2022-11-14T08:25:40;101432.00;;;11.30
45850;BMP180;10739;52.198;20.908;2022-11-14T08:28:07;101427.00;;;11.20
45850;BMP180;10739;52.198;20.908;2022-11-14T08:30:34;101425.00;;;11.20
45850;BMP180;10739;52.198;20.908;2022-11-14T08:33:02;101419.00;;;11.40
45850;BMP180;10739;52.198;20.908;2022-11-14T08:35:28;101431.00;;;11.30
45850;BMP180;10739;52.198;20.908;2022-11-14T08:37:54;101416.00;;;11.50
45850;BMP180;10739;52.198;20.908;2022-11-14T08:40:21;101416.00;;;11.40
45850;BMP180;10739;52.198;20.908;2022-11-14T08:42:47;101419.00;;;11.50
45850;BMP180;10739;52.198;20.908;2022-11-14T08:45:13;101418.00;;;11.40
45850;BMP180;10739;52.198;20.908;2022-11-14T08:47:39;101425.00;;;11.20
45850;BMP180;10739;52.198;20.908;2022-11-14T08:50:05;101409.00;;;11.00
45850;BMP180;10739;52.198;20.908;2022-11-14T08:52:32;101412.00;;;11.70
45850;BMP180;10739;52.198;20.908;2022-11-14T08:54:58;101411.00;;;11.70
45850;BMP180;10739;52.198;20.908;2022-11-14T08:57:24;101404.00;;;11.40
45850;BMP180;10739;52.198;20.908;2022-11-14T08:59:50;101408.00;;;11.60
45850;BMP180;10739;52.198;20.908;2022-11-14T09:02:18;101402.00;;;11.50
45850;BMP180;10739;52.198;20.908;2022-11-14T09:04:44;101404.00;;;11.40
45850;BMP180;10739;52.198;20.908;2022-11-14T09:07:10;101403.00;;;11.40
45850;BMP180;10739;52.198;20.908;2022-11-14T09:09:37;101407.00;;;11.00
45850;BMP180;10739;52.198;20.908;2022-11-14T09:12:03;101392.00;;;11.30
45850;BMP180;10739;52.198;20.908;2022-11-14T09:14:29;101399.00;;;11.00
45850;BMP180;10739;52.198;20.908;2022-11-14T09:16:55;101390.00;;;10.80
45850;BMP180;10739;52.198;20.908;2022-11-14T09:19:21;101395.00;;;10.50
45850;BMP180;10739;52.198;20.908;2022-11-14T09:21:47;101393.00;;;10.60
45850;BMP180;10739;52.198;20.908;2022-11-14T09:24:13;101386.00;;;10.70
45850;BMP180;10739;52.198;20.908;2022-11-14T09:26:39;101380.00;;;10.60
45850;BMP180;10739;52.198;20.908;2022-11-14T09:29:05;101374.00;;;10.90
45850;BMP180;10739;52.198;20.908;2022-11-14T09:31:33;101387.00;;;11.10
45850;BMP180;10739;52.198;20.908;2022-11-14T09:33:59;101387.00;;;11.10
45850;BMP180;10739;52.198;20.908;2022-11-14T09:36:25;101383.00;;;11.40
45850;BMP180;10739;52.198;20.908;2022-11-14T09:38:51;101384.00;;;11.10
45850;BMP180;10739;52.198;20.908;2022-11-14T09:44:53;101375.00;;;10.90
45850;BMP180;10739;52.198;20.908;2022-11-14T09:47:28;101377.00;;;11.00
45850;BMP180;10739;52.198;20.908;2022-11-14T09:50:05;101365.00;;;11.20
45850;BMP180;10739;52.198;20.908;2022-11-14T09:52:38;101372.00;;;11.60
45850;BMP180;10739;52.198;20.908;2022-11-14T09:57:41;101370.00;;;11.80
45850;BMP180;10739;52.198;20.908;2022-11-14T10:00:58;101373.00;;;11.70
45850;BMP180;10739;52.198;20.908;2022-11-14T10:03:36;101365.00;;;11.00
45850;BMP180;10739;52.198;20.908;2022-11-14T10:06:32;101366.00;;;11.40
45850;BMP180;10739;52.198;20.908;2022-11-14T10:09:33;101364.00;;;11.40
45850;BMP180;10739;52.198;20.908;2022-11-14T10:12:22;101359.00;;;11.50
45850;BMP180;10739;52.198;20.908;2022-11-14T10:15:16;101360.00;;;11.30
45850;BMP180;10739;52.198;20.908;2022-11-14T10:18:11;101356.00;;;11.60
45850;BMP180;10739;52.198;20.908;2022-11-14T10:26:27;101339.00;;;11.80
45850;BMP180;10739;52.198;20.908;2022-11-14T10:33:09;101342.00;;;11.60
45850;BMP180;10739;52.198;20.908;2022-11-14T10:35:53;101333.00;;;11.70
45850;BMP180;10739;52.198;20.908;2022-11-14T10:38:39;101341.00;;;11.50
45850;BMP180;10739;52.198;20.908;2022-11-14T10:41:09;101326.00;;;11.60
45850;BMP180;10739;52.198;20.908;2022-11-14T10:43:46;101332.00;;;11.50
45850;BMP180;10739;52.198;20.908;2022-11-14T10:46:39;101327.00;;;11.60
45850;BMP180;10739;52.198;20.908;2022-11-14T10:49:15;101326.00;;;11.90
45850;BMP180;10739;52.198;20.908;2022-11-14T10:51:53;101322.00;;;11.30
45850;BMP180;10739;52.198;20.908;2022-11-14T10:54:32;101322.00;;;11.80
45850;BMP180;10739;52.198;20.908;2022-11-14T10:56:59;101320.00;;;11.60
45850;BMP180;10739;52.198;20.908;2022-11-14T10:59:25;101312.00;;;11.40
45850;BMP180;10739;52.198;20.908;2022-11-14T11:01:56;101301.00;;;11.40
45850;BMP180;10739;52.198;20.908;2022-11-14T11:04:32;101300.00;;;11.20
45850;BMP180;10739;52.198;20.908;2022-11-14T11:09:38;101289.00;;;11.40
45850;BMP180;10739;52.198;20.908;2022-11-14T11:15:24;101282.00;;;11.60
45850;BMP180;10739;52.198;20.908;2022-11-14T11:20:37;101285.00;;;11.70
45850;BMP180;10739;52.198;20.908;2022-11-14T11:25:38;101276.00;;;11.70
45850;BMP180;10739;52.198;20.908;2022-11-14T11:28:20;101269.00;;;11.50
45850;BMP180;10739;52.198;20.908;2022-11-14T11:31:03;101268.00;;;11.80
45850;BMP180;10739;52.198;20.908;2022-11-14T11:33:35;101261.00;;;11.40
45850;BMP180;10739;52.198;20.908;2022-11-14T11:36:14;101261.00;;;11.50
45850;BMP180;10739;52.198;20.908;2022-11-14T11:38:41;101254.00;;;11.50
45850;BMP180;10739;52.198;20.908;2022-11-14T11:41:30;101258.00;;;11.30
45850;BMP180;10739;52.198;20.908;2022-11-14T11:44:03;101247.00;;;11.60
45850;BMP180;10739;52.198;20.908;2022-11-14T11:47:00;101248.00;;;11.30
45850;BMP180;10739;52.198;20.908;2022-11-14T11:52:01;101251.00;;;11.60
45850;BMP180;10739;52.198;20.908;2022-11-14T11:57:44;101253.00;;;11.20
45850;BMP180;10739;52.198;20.908;2022-11-14T12:00:20;101240.00;;;11.40
45850;BMP180;10739;52.198;20.908;2022-11-14T12:02:50;101236.00;;;11.60
45850;BMP180;10739;52.198;20.908;2022-11-14T12:05:30;101229.00;;;11.80
45850;BMP180;10739;52.198;20.908;2022-11-14T12:11:03;101231.00;;;11.60
45850;BMP180;10739;52.198;20.908;2022-11-14T12:26:10;101246.00;;;11.20
45850;BMP180;10739;52.198;20.908;2022-11-14T12:29:41;101228.00;;;11.10
45850;BMP180;10739;52.198;20.908;2022-11-14T12:32:31;101238.00;;;11.10
45850;BMP180;10739;52.198;20.908;2022-11-14T12:35:02;101238.00;;;10.80
45850;BMP180;10739;52.198;20.908;2022-11-14T12:37:37;101239.00;;;11.20
45850;BMP180;10739;52.198;20.908;2022-11-14T12:40:31;101233.00;;;10.70
45850;BMP180;10739;52.198;20.908;2022-11-14T12:42:59;101236.00;;;11.20
45850;BMP180;10739;52.198;20.908;2022-11-14T12:48:38;101242.00;;;10.30
45850;BMP180;10739;52.198;20.908;2022-11-14T12:53:54;101247.00;;;10.60
45850;BMP180;10739;52.198;20.908;2022-11-14T12:59:24;101231.00;;;10.80
45850;BMP180;10739;52.198;20.908;2022-11-14T13:10:40;101227.00;;;10.80
45850;BMP180;10739;52.198;20.908;2022-11-14T13:13:11;101218.00;;;11.00
45850;BMP180;10739;52.198;20.908;2022-11-14T13:15:59;101228.00;;;11.20
45850;BMP180;10739;52.198;20.908;2022-11-14T13:18:54;101228.00;;;11.40
45850;BMP180;10739;52.198;20.908;2022-11-14T13:27:31;101225.00;;;11.10
45850;BMP180;10739;52.198;20.908;2022-11-14T13:29:59;101219.00;;;10.80
45850;BMP180;10739;52.198;20.908;2022-11-14T13:35:48;101215.00;;;10.70
45850;BMP180;10739;52.198;20.908;2022-11-14T13:50:07;101215.00;;;10.40
45850;BMP180;10739;52.198;20.908;2022-11-14T13:52:44;101218.00;;;10.50
45850;BMP180;10739;52.198;20.908;2022-11-14T13:56:41;101211.00;;;10.40
45850;BMP180;10739;52.198;20.908;2022-11-14T14:05:03;101203.00;;;10.50
45850;BMP180;10739;52.198;20.908;2022-11-14T14:09:43;101203.00;;;10.30
45850;BMP180;10739;52.198;20.908;2022-11-14T14:20:31;101186.00;;;10.50
45850;BMP180;10739;52.198;20.908;2022-11-14T14:31:38;101178.00;;;10.80
45850;BMP180;10739;52.198;20.908;2022-11-14T14:34:26;101172.00;;;10.70
45850;BMP180;10739;52.198;20.908;2022-11-14T14:36:55;101167.00;;;10.50
45850;BMP180;10739;52.198;20.908;2022-11-14T14:39:25;101164.00;;;10.10
45850;BMP180;10739;52.198;20.908;2022-11-14T14:41:57;101168.00;;;10.30
45850;BMP180;10739;52.198;20.908;2022-11-14T14:44:29;101172.00;;;10.20
45850;BMP180;10739;52.198;20.908;2022-11-14T14:49:55;101158.00;;;10.60
45850;BMP180;10739;52.198;20.908;2022-11-14T14:52:35;101161.00;;;10.30
45850;BMP180;10739;52.198;20.908;2022-11-14T14:55:04;101148.00;;;10.40
45850;BMP180;10739;52.198;20.908;2022-11-14T14:57:31;101148.00;;;10.60
45850;BMP180;10739;52.198;20.908;2022-11-14T15:00:00;101143.00;;;10.70
45850;BMP180;10739;52.198;20.908;2022-11-14T15:02:28;101140.00;;;10.00
45850;BMP180;10739;52.198;20.908;2022-11-14T15:04:56;101149.00;;;10.20
45850;BMP180;10739;52.198;20.908;2022-11-14T15:07:27;101153.00;;;10.50
45850;BMP180;10739;52.198;20.908;2022-11-14T15:10:00;101143.00;;;10.40
45850;BMP180;10739;52.198;20.908;2022-11-14T15:12:30;101149.00;;;10.00
45850;BMP180;10739;52.198;20.908;2022-11-14T15:14:58;101148.00;;;10.30
45850;BMP180;10739;52.198;20.908;2022-11-14T15:17:25;101141.00;;;10.70
45850;BMP180;10739;52.198;20.908;2022-11-14T15:19:53;101141.00;;;10.50
45850;BMP180;10739;52.198;20.908;2022-11-14T15:22:24;101136.00;;;9.90
45850;BMP180;10739;52.198;20.908;2022-11-14T15:25:17;101136.00;;;10.00
45850;BMP180;10739;52.198;20.908;2022-11-14T15:27:52;101138.00;;;10.40
45850;BMP180;10739;52.198;20.908;2022-11-14T15:30:29;101128.00;;;10.70
45850;BMP180;10739;52.198;20.908;2022-11-14T15:33:03;101129.00;;;10.10
45850;BMP180;10739;52.198;20.908;2022-11-14T15:35:34;101122.00;;;10.20
45850;BMP180;10739;52.198;20.908;2022-11-14T15:40:40;101121.00;;;10.60
45850;BMP180;10739;52.198;20.908;2022-11-14T15:46:38;101116.00;;;10.80
45850;BMP180;10739;52.198;20.908;2022-11-14T15:51:55;101109.00;;;10.10
45850;BMP180;10739;52.198;20.908;2022-11-14T15:54:29;101106.00;;;10.10
45850;BMP180;10739;52.198;20.908;2022-11-14T15:56:59;101094.00;;;10.30
45850;BMP180;10739;52.198;20.908;2022-11-14T15:59:28;101095.00;;;10.10
45850;BMP180;10739;52.198;20.908;2022-11-14T16:02:11;101092.00;;;10.00
45850;BMP180;10739;52.198;20.908;2022-11-14T16:04:39;101093.00;;;9.80
45850;BMP180;10739;52.198;20.908;2022-11-14T16:07:05;101104.00;;;10.20